Altus AFB, Oklahoma
Current Conditions -  °F | °C
As of 12:58 AM on Friday 31 Oct 2014 (Local Time) from KLTS Reporting Station
Clear Clear  
Wind Chill: 52°   Ceiling: Unl
Heat Index: 52°   Visibility: 10mi
Dew Point: 33°   Wind: 7mph
Humidity: 50%   Direction: 30°NNE
Pressure: 30.27"   Gusts: NA
Location:  34.65°N, 99.28°W
Report Text: KLTS 310558Z 03006KT 10SM CLR 11/01 A3027 RMK AO2A SLP244 T01090008 10181 20109 402680070 52014 $
Loading
Personal Weather Stations






























Interactive Weather Map
Tropical Storm Tracking
New forecast layout! Learn more

10-Day Weather Forecast

Advertisements
Track Severe Weather on mobile